createdAt,value
2018-12-19T00:02:10.450Z,4.20
2018-12-19T00:04:39.038Z,4.20
2018-12-19T00:07:07.617Z,4.20
2018-12-19T00:09:36.320Z,4.30
2018-12-19T00:12:05.016Z,4.30
2018-12-19T00:14:33.723Z,4.30
2018-12-19T00:17:02.657Z,4.30
2018-12-19T00:19:31.406Z,4.30
2018-12-19T00:22:00.097Z,4.30
2018-12-19T00:24:28.924Z,4.30
2018-12-19T00:26:59.291Z,4.30
2018-12-19T00:29:29.184Z,4.30
2018-12-19T00:31:58.801Z,4.30
2018-12-19T00:34:28.252Z,4.30
2018-12-19T00:36:57.550Z,4.30
2018-12-19T00:39:26.296Z,4.30
2018-12-19T00:44:31.901Z,4.30
2018-12-19T00:47:08.933Z,4.30
2018-12-19T00:49:38.006Z,4.30
2018-12-19T00:52:09.779Z,4.30
2018-12-19T00:55:02.429Z,4.30
2018-12-19T00:57:33.837Z,4.40
2018-12-19T01:00:06.085Z,4.30
2018-12-19T01:02:35.184Z,4.40
2018-12-19T01:05:04.219Z,4.30
2018-12-19T01:07:33.245Z,4.40
2018-12-19T01:10:02.744Z,4.30
2018-12-19T01:12:32.836Z,4.40
2018-12-19T01:15:01.528Z,4.40
2018-12-19T01:17:30.341Z,4.40
2018-12-19T01:19:59.013Z,4.40
2018-12-19T01:22:27.787Z,4.40
2018-12-19T01:25:00.366Z,4.40
2018-12-19T01:27:29.222Z,4.40
2018-12-19T01:29:59.088Z,4.40
2018-12-19T01:32:28.439Z,4.40
2018-12-19T01:34:58.705Z,4.40
2018-12-19T01:37:27.961Z,4.40
2018-12-19T01:39:56.640Z,4.40
2018-12-19T01:42:25.420Z,4.40
2018-12-19T01:44:54.212Z,4.40
2018-12-19T01:47:23.844Z,4.40
2018-12-19T01:49:53.548Z,4.40
2018-12-19T01:52:22.262Z,4.40
2018-12-19T01:54:51.026Z,4.40
2018-12-19T01:57:20.244Z,4.40
2018-12-19T01:59:49.245Z,4.40
2018-12-19T02:02:17.950Z,4.40
2018-12-19T02:04:46.606Z,4.40
2018-12-19T02:07:15.832Z,4.50
2018-12-19T02:09:48.234Z,4.50
2018-12-19T02:12:18.150Z,4.50
2018-12-19T02:14:47.645Z,4.50
2018-12-19T02:17:17.606Z,4.50
2018-12-19T02:19:49.713Z,4.50
2018-12-19T02:22:20.304Z,4.50
2018-12-19T02:24:53.806Z,4.50
2018-12-19T02:27:23.544Z,4.50
2018-12-19T02:29:52.334Z,4.50
2018-12-19T02:32:22.813Z,4.50
2018-12-19T02:34:53.554Z,4.50
2018-12-19T02:37:22.861Z,4.50
2018-12-19T02:39:52.212Z,4.50
2018-12-19T02:42:23.187Z,4.50
2018-12-19T02:44:52.954Z,4.50
2018-12-19T02:47:21.542Z,4.50
2018-12-19T02:49:50.268Z,4.50
2018-12-19T02:52:20.743Z,4.50
2018-12-19T02:54:49.388Z,4.50
2018-12-19T02:57:17.988Z,4.50
2018-12-19T02:59:46.727Z,4.50
2018-12-19T03:02:19.430Z,4.50
2018-12-19T03:04:49.264Z,4.50
2018-12-19T03:07:17.987Z,4.50
2018-12-19T03:09:48.678Z,4.50
2018-12-19T03:12:18.356Z,4.50
2018-12-19T03:14:46.979Z,4.50
2018-12-19T03:17:16.592Z,4.50
2018-12-19T03:19:45.209Z,4.50
2018-12-19T03:22:15.787Z,4.50
2018-12-19T03:24:44.470Z,4.50
2018-12-19T03:27:13.147Z,4.50
2018-12-19T03:29:42.238Z,4.40
2018-12-19T03:32:11.197Z,4.50
2018-12-19T03:34:39.703Z,4.40
2018-12-19T03:37:08.392Z,4.50
2018-12-19T03:39:37.139Z,4.50
2018-12-19T03:42:05.816Z,4.50
2018-12-19T03:44:34.348Z,4.50
2018-12-19T03:47:02.877Z,4.50
2018-12-19T03:49:31.709Z,4.50
2018-12-19T03:52:00.328Z,4.50
2018-12-19T03:54:29.157Z,4.50
2018-12-19T03:56:58.043Z,4.50
2018-12-19T03:59:27.516Z,4.50
2018-12-19T04:01:56.164Z,4.50
2018-12-19T04:04:26.235Z,4.50
2018-12-19T04:06:56.333Z,4.50
2018-12-19T04:09:24.990Z,4.50
2018-12-19T04:11:53.720Z,4.50
2018-12-19T04:14:22.301Z,4.50
2018-12-19T04:16:50.876Z,4.50
2018-12-19T04:19:19.526Z,4.50
2018-12-19T04:21:48.119Z,4.60
2018-12-19T04:24:16.710Z,4.60
2018-12-19T04:26:45.250Z,4.60
2018-12-19T04:29:13.908Z,4.70
2018-12-19T04:31:43.756Z,4.70
2018-12-19T04:34:14.023Z,4.70
2018-12-19T04:36:45.043Z,4.70
2018-12-19T04:39:13.645Z,4.70
2018-12-19T04:41:42.254Z,4.80
2018-12-19T04:44:11.449Z,4.80
2018-12-19T04:46:40.073Z,4.80
2018-12-19T04:49:12.358Z,4.80
2018-12-19T04:51:41.388Z,4.80
2018-12-19T04:54:13.069Z,4.80
2018-12-19T04:56:42.341Z,4.80
2018-12-19T04:59:12.884Z,4.80
2018-12-19T05:01:42.498Z,4.80
2018-12-19T05:04:11.453Z,4.80
2018-12-19T05:06:43.924Z,4.80
2018-12-19T05:09:13.305Z,4.80
2018-12-19T05:11:45.927Z,4.90
2018-12-19T05:14:17.704Z,4.90
2018-12-19T05:16:51.931Z,4.90
2018-12-19T05:19:20.801Z,4.90
2018-12-19T05:21:49.586Z,4.90
2018-12-19T05:24:18.354Z,4.90
2018-12-19T05:26:47.030Z,4.90
2018-12-19T05:29:15.815Z,4.90
2018-12-19T05:31:44.667Z,4.90
2018-12-19T05:34:13.363Z,4.90
2018-12-19T05:36:43.021Z,4.90
2018-12-19T05:39:11.936Z,4.90
2018-12-19T05:41:40.630Z,4.90
2018-12-19T05:44:09.250Z,4.90
2018-12-19T05:46:37.908Z,4.90
2018-12-19T05:49:06.765Z,4.90
2018-12-19T05:51:35.384Z,4.90
2018-12-19T05:54:04.072Z,4.90
2018-12-19T05:56:33.524Z,4.90
2018-12-19T05:59:02.245Z,4.90
2018-12-19T06:01:30.884Z,4.90
2018-12-19T06:04:00.767Z,4.90
2018-12-19T06:06:29.778Z,4.90
2018-12-19T06:08:59.344Z,4.90
2018-12-19T06:11:29.177Z,4.90
2018-12-19T06:13:57.776Z,5.00
2018-12-19T06:16:26.595Z,5.00
2018-12-19T06:18:55.152Z,5.00
2018-12-19T06:21:23.695Z,5.00
2018-12-19T06:23:52.203Z,5.10
2018-12-19T06:26:21.153Z,5.20
2018-12-19T06:28:49.736Z,5.20
2018-12-19T06:31:18.268Z,5.20
2018-12-19T06:33:46.992Z,5.30
2018-12-19T06:36:15.777Z,5.30
2018-12-19T06:38:44.328Z,5.40
2018-12-19T06:41:12.876Z,5.40
2018-12-19T06:43:42.456Z,5.50
2018-12-19T06:46:11.108Z,5.60
2018-12-19T06:48:39.642Z,5.60
2018-12-19T06:51:08.159Z,5.70
2018-12-19T06:53:36.778Z,5.80
2018-12-19T06:56:05.659Z,5.80
2018-12-19T06:58:34.167Z,5.90
2018-12-19T07:01:02.682Z,5.90
2018-12-19T07:03:31.250Z,6.00
2018-12-19T07:05:59.804Z,6.00
2018-12-19T07:08:28.321Z,6.10
2018-12-19T07:10:56.894Z,6.10
2018-12-19T07:13:25.504Z,6.10
2018-12-19T07:15:54.064Z,6.20
2018-12-19T07:18:22.702Z,6.20
2018-12-19T07:20:51.253Z,6.20
2018-12-19T07:23:19.807Z,6.20
2018-12-19T07:25:48.335Z,6.30
2018-12-19T07:28:17.602Z,6.30
2018-12-19T07:30:46.161Z,6.30
2018-12-19T07:33:14.699Z,6.30
2018-12-19T07:35:43.248Z,6.30
2018-12-19T07:38:11.813Z,6.30
2018-12-19T07:40:45.579Z,6.30
2018-12-19T07:43:11.428Z,6.40
2018-12-19T07:45:39.978Z,6.40
2018-12-19T07:48:08.541Z,6.40
2018-12-19T07:50:37.230Z,6.40
2018-12-19T07:53:05.908Z,6.40
2018-12-19T07:55:37.150Z,6.40
2018-12-19T07:58:06.329Z,6.40
2018-12-19T08:00:35.000Z,6.40
2018-12-19T08:03:03.572Z,6.40
2018-12-19T08:05:32.217Z,6.40
2018-12-19T08:08:00.796Z,6.40
2018-12-19T08:10:29.351Z,6.40
2018-12-19T08:12:57.973Z,6.40
2018-12-19T08:15:26.546Z,6.40
2018-12-19T08:17:55.127Z,6.50
2018-12-19T08:20:23.718Z,6.50
2018-12-19T08:22:52.378Z,6.50
2018-12-19T08:25:20.984Z,6.50
2018-12-19T08:27:49.534Z,6.50
2018-12-19T08:30:18.346Z,6.40
2018-12-19T08:32:46.867Z,6.50
2018-12-19T08:35:15.391Z,6.50
2018-12-19T08:37:44.031Z,6.40
2018-12-19T08:40:12.589Z,6.40
2018-12-19T08:42:41.133Z,6.40
2018-12-19T08:45:09.674Z,6.40
2018-12-19T08:47:38.258Z,6.40
2018-12-19T08:50:09.003Z,6.40
2018-12-19T08:52:37.600Z,6.40
2018-12-19T08:55:07.865Z,6.40
2018-12-19T08:57:36.407Z,6.40
2018-12-19T09:00:06.318Z,6.40
2018-12-19T09:02:34.855Z,6.50
2018-12-19T09:05:03.487Z,6.40
2018-12-19T09:07:32.021Z,6.50
2018-12-19T09:10:00.528Z,6.50
2018-12-19T09:12:29.183Z,6.50
2018-12-19T09:14:58.010Z,6.50
2018-12-19T09:17:27.140Z,6.50
2018-12-19T09:19:55.769Z,6.50
2018-12-19T09:22:24.410Z,6.50
2018-12-19T09:24:52.930Z,6.50
2018-12-19T09:27:21.445Z,6.50
2018-12-19T09:29:50.520Z,6.50
2018-12-19T09:32:19.001Z,6.60
2018-12-19T09:34:47.490Z,6.60
2018-12-19T09:37:15.979Z,6.60
2018-12-19T09:39:44.434Z,6.60
2018-12-19T09:42:12.976Z,6.60
2018-12-19T09:44:41.452Z,6.60
2018-12-19T09:47:09.901Z,6.70
2018-12-19T09:49:38.358Z,6.70
2018-12-19T09:52:06.933Z,6.70
2018-12-19T09:54:35.424Z,6.70
2018-12-19T09:57:03.909Z,6.70
2018-12-19T09:59:32.396Z,6.80
2018-12-19T10:02:01.265Z,6.80
2018-12-19T10:04:29.716Z,6.80
2018-12-19T10:06:58.181Z,6.80
2018-12-19T10:09:26.633Z,6.80
2018-12-19T10:11:55.083Z,6.80
2018-12-19T10:14:23.558Z,6.90
2018-12-19T10:16:52.025Z,6.90
2018-12-19T10:19:20.502Z,6.90
2018-12-19T10:21:49.223Z,6.90
2018-12-19T10:24:17.679Z,6.90
2018-12-19T10:26:46.126Z,6.90
2018-12-19T10:29:14.586Z,7.00
2018-12-19T10:31:43.048Z,7.00
2018-12-19T10:34:11.511Z,7.00
2018-12-19T10:36:40.011Z,7.00
2018-12-19T10:39:16.492Z,7.10
2018-12-19T10:41:44.963Z,7.10
2018-12-19T10:44:13.856Z,7.20
2018-12-19T10:46:42.479Z,7.20
2018-12-19T10:49:10.938Z,7.30
2018-12-19T10:51:39.407Z,7.30
2018-12-19T10:54:07.867Z,7.40
2018-12-19T10:56:36.356Z,7.50
2018-12-19T10:59:04.818Z,7.50
2018-12-19T11:01:33.305Z,7.60
2018-12-19T11:04:01.785Z,7.60
2018-12-19T11:06:30.230Z,7.60
2018-12-19T11:08:58.696Z,7.70
2018-12-19T11:11:32.306Z,7.70
2018-12-19T11:13:57.743Z,7.70
2018-12-19T11:16:26.195Z,7.80
2018-12-19T11:18:54.650Z,7.90
2018-12-19T11:21:23.107Z,7.90
2018-12-19T11:23:51.787Z,8.00
2018-12-19T11:26:20.231Z,8.10
2018-12-19T11:28:48.830Z,8.20
2018-12-19T11:31:17.463Z,8.20
2018-12-19T11:33:46.164Z,8.30
2018-12-19T11:36:14.631Z,8.40
2018-12-19T11:38:43.080Z,8.40
2018-12-19T11:41:11.559Z,8.40
2018-12-19T11:43:40.050Z,8.50
2018-12-19T11:46:08.706Z,8.50
2018-12-19T11:48:37.163Z,8.60
2018-12-19T11:51:05.643Z,8.60
2018-12-19T11:53:34.106Z,8.60
2018-12-19T11:56:02.567Z,8.60
2018-12-19T11:58:31.026Z,8.70
2018-12-19T12:00:59.518Z,8.70
2018-12-19T12:03:29.516Z,8.70
2018-12-19T12:05:58.191Z,8.70
2018-12-19T12:08:26.706Z,8.70
2018-12-19T12:10:55.188Z,8.70
2018-12-19T12:13:23.674Z,8.70
2018-12-19T12:15:52.171Z,8.70
2018-12-19T12:18:20.644Z,8.70
2018-12-19T12:20:49.123Z,8.70
2018-12-19T12:23:17.586Z,8.70
2018-12-19T12:25:46.067Z,8.70
2018-12-19T12:28:14.547Z,8.70
2018-12-19T12:30:43.003Z,8.70
2018-12-19T12:33:11.646Z,8.70
2018-12-19T12:35:40.340Z,8.70
2018-12-19T12:38:10.460Z,8.70
2018-12-19T12:40:38.922Z,8.70
2018-12-19T12:43:07.732Z,8.70
2018-12-19T12:45:36.247Z,8.60
2018-12-19T12:48:04.720Z,8.60
2018-12-19T12:50:33.685Z,8.60
2018-12-19T12:53:02.274Z,8.60
2018-12-19T12:55:31.868Z,8.60
2018-12-19T12:58:00.378Z,8.60
2018-12-19T13:00:28.904Z,8.60
2018-12-19T13:02:57.379Z,8.60
2018-12-19T13:05:25.917Z,8.50
2018-12-19T13:07:54.383Z,8.60
2018-12-19T13:10:22.889Z,8.50
2018-12-19T13:12:51.378Z,8.60
2018-12-19T13:15:50.834Z,8.60
2018-12-19T13:18:19.321Z,8.50
2018-12-19T13:20:47.899Z,8.50
2018-12-19T13:23:16.371Z,8.60
2018-12-19T13:25:44.836Z,8.50
2018-12-19T13:28:13.342Z,8.50
2018-12-19T13:30:43.214Z,8.50
2018-12-19T13:33:11.701Z,8.50
2018-12-19T13:35:40.188Z,8.50
2018-12-19T13:38:08.691Z,8.50
2018-12-19T13:40:37.213Z,8.50
2018-12-19T13:43:12.156Z,8.50
2018-12-19T13:45:40.645Z,8.50
2018-12-19T13:48:09.157Z,8.50
2018-12-19T13:50:37.750Z,8.50
2018-12-19T13:53:06.988Z,8.50
2018-12-19T13:55:36.191Z,8.50
2018-12-19T13:58:07.163Z,8.50
2018-12-19T14:00:35.279Z,8.50
2018-12-19T14:03:03.909Z,8.50
2018-12-19T14:05:32.896Z,8.50
2018-12-19T14:08:01.402Z,8.50
2018-12-19T14:10:30.167Z,8.50
2018-12-19T14:12:58.817Z,8.50
2018-12-19T14:15:27.306Z,8.50
2018-12-19T14:17:55.893Z,8.50
2018-12-19T14:20:24.401Z,8.50
2018-12-19T14:22:53.088Z,8.50
2018-12-19T14:25:22.910Z,8.50
2018-12-19T14:27:51.693Z,8.50
2018-12-19T14:30:20.765Z,8.40
2018-12-19T14:32:51.411Z,8.40
2018-12-19T14:35:19.977Z,8.40
2018-12-19T14:37:48.553Z,8.40
2018-12-19T14:40:17.231Z,8.40
2018-12-19T14:42:47.116Z,8.40
2018-12-19T14:45:16.900Z,8.40
2018-12-19T14:47:46.057Z,8.40
2018-12-19T14:50:14.653Z,8.40
2018-12-19T14:52:43.720Z,8.50
2018-12-19T14:55:12.337Z,8.40
2018-12-19T14:57:41.724Z,8.40
2018-12-19T15:00:11.538Z,8.40
2018-12-19T15:02:55.104Z,8.40
2018-12-19T15:05:51.206Z,8.40
2018-12-19T15:11:57.101Z,8.30
2018-12-19T15:14:25.759Z,8.30
2018-12-19T15:16:55.031Z,8.30
2018-12-19T15:19:23.827Z,8.30
2018-12-19T15:21:57.608Z,8.20
2018-12-19T15:24:26.682Z,8.20
2018-12-19T15:27:58.675Z,8.20
2018-12-19T15:30:48.750Z,8.10
2018-12-19T15:33:21.369Z,8.10
2018-12-19T15:35:52.070Z,8.10
2018-12-19T15:38:22.444Z,8.10
2018-12-19T15:40:51.679Z,8.00
2018-12-19T15:43:20.614Z,8.00
2018-12-19T15:45:49.249Z,8.00
2018-12-19T15:48:18.060Z,8.00
2018-12-19T15:50:48.693Z,8.00
2018-12-19T15:53:17.986Z,8.00
2018-12-19T15:55:48.607Z,8.00
2018-12-19T15:58:19.284Z,8.00
2018-12-19T16:00:52.141Z,7.90
2018-12-19T16:03:26.402Z,7.90
2018-12-19T16:06:00.186Z,7.90
2018-12-19T16:08:32.705Z,7.90
2018-12-19T16:11:01.802Z,7.90
2018-12-19T16:13:31.011Z,7.90
2018-12-19T16:16:00.556Z,7.90
2018-12-19T16:18:29.432Z,7.90
2018-12-19T16:20:58.588Z,7.90
2018-12-19T16:23:27.227Z,7.90
2018-12-19T16:25:55.742Z,7.90
2018-12-19T16:28:24.834Z,7.80
2018-12-19T16:30:53.471Z,7.80
2018-12-19T16:33:21.986Z,7.80
2018-12-19T16:35:50.501Z,7.80
2018-12-19T16:38:18.987Z,7.80
2018-12-19T16:40:47.473Z,7.80
2018-12-19T16:43:15.971Z,7.80
2018-12-19T16:45:44.478Z,7.80
2018-12-19T16:48:12.972Z,7.80
2018-12-19T16:50:42.279Z,7.80
2018-12-19T16:53:10.796Z,7.80
2018-12-19T16:55:39.601Z,7.70
2018-12-19T16:58:08.310Z,7.70
2018-12-19T17:00:38.365Z,7.70
2018-12-19T17:03:07.229Z,7.70
2018-12-19T17:05:35.950Z,7.70
2018-12-19T17:08:04.750Z,7.70
2018-12-19T17:10:33.922Z,7.70
2018-12-19T17:13:04.261Z,7.70
2018-12-19T17:15:37.077Z,7.70
2018-12-19T17:18:05.979Z,7.70
2018-12-19T17:20:34.515Z,7.70
2018-12-19T17:23:03.010Z,7.70
2018-12-19T17:25:32.064Z,7.70
2018-12-19T17:28:00.575Z,7.70
2018-12-19T17:30:29.061Z,7.70
2018-12-19T17:32:57.632Z,7.70
2018-12-19T17:35:26.216Z,7.70
2018-12-19T17:37:54.740Z,7.70
2018-12-19T17:40:23.454Z,7.70
2018-12-19T17:43:00.197Z,7.70
2018-12-19T17:45:28.651Z,7.70
2018-12-19T17:47:58.605Z,7.80
2018-12-19T17:50:27.433Z,7.70
2018-12-19T17:52:56.053Z,7.70
2018-12-19T17:55:24.601Z,7.70
2018-12-19T17:57:53.144Z,7.70
2018-12-19T18:00:22.186Z,7.70
2018-12-19T18:02:50.774Z,7.70
2018-12-19T18:05:19.232Z,7.70
2018-12-19T18:07:47.750Z,7.70
2018-12-19T18:10:17.245Z,7.70
2018-12-19T18:12:46.175Z,7.70
2018-12-19T18:15:14.898Z,7.70
2018-12-19T18:17:44.464Z,7.70
2018-12-19T18:20:13.283Z,7.60
2018-12-19T18:22:43.212Z,7.70
2018-12-19T18:25:12.029Z,7.60
2018-12-19T18:27:40.635Z,7.60
2018-12-19T18:30:10.074Z,7.60
2018-12-19T18:32:38.768Z,7.60
2018-12-19T18:35:08.136Z,7.60
2018-12-19T18:37:36.997Z,7.60
2018-12-19T18:40:07.902Z,7.60
2018-12-19T18:42:37.604Z,7.60
2018-12-19T18:45:11.892Z,7.60
2018-12-19T18:47:38.690Z,7.60
2018-12-19T18:50:10.219Z,7.60
2018-12-19T18:52:39.490Z,7.60
2018-12-19T18:55:08.705Z,7.60
2018-12-19T18:57:37.987Z,7.60
2018-12-19T19:00:08.513Z,7.60
2018-12-19T19:02:37.594Z,7.50
2018-12-19T19:05:06.994Z,7.50
2018-12-19T19:07:36.675Z,7.40
2018-12-19T19:10:06.159Z,7.40
2018-12-19T19:12:35.196Z,7.40
2018-12-19T19:15:04.380Z,7.40
2018-12-19T19:17:32.868Z,7.40
2018-12-19T19:20:01.612Z,7.40
2018-12-19T19:22:30.558Z,7.40
2018-12-19T19:24:59.061Z,7.40
2018-12-19T19:27:27.609Z,7.40
2018-12-19T19:29:56.196Z,7.40
2018-12-19T19:32:24.975Z,7.40
2018-12-19T19:34:53.726Z,7.30
2018-12-19T19:37:22.343Z,7.30
2018-12-19T19:39:50.983Z,7.30
2018-12-19T19:42:20.220Z,7.30
2018-12-19T19:44:49.092Z,7.20
2018-12-19T19:47:19.574Z,7.20
2018-12-19T19:49:50.107Z,7.20
2018-12-19T19:52:18.805Z,7.20
2018-12-19T19:54:47.503Z,7.20
2018-12-19T19:57:16.788Z,7.10
2018-12-19T19:59:45.755Z,7.10
2018-12-19T20:02:14.521Z,7.10
2018-12-19T20:04:43.501Z,7.10
2018-12-19T20:07:12.395Z,7.10
2018-12-19T20:09:41.045Z,7.00
2018-12-19T20:12:10.307Z,7.00
2018-12-19T20:14:38.874Z,7.00
2018-12-19T20:17:07.684Z,7.00
2018-12-19T20:19:36.653Z,7.00
2018-12-19T20:22:05.332Z,7.00
2018-12-19T20:24:33.882Z,6.90
2018-12-19T20:27:02.549Z,6.90
2018-12-19T20:29:32.117Z,7.00
2018-12-19T20:32:00.832Z,6.90
2018-12-19T20:34:29.576Z,6.90
2018-12-19T20:36:58.145Z,6.90
2018-12-19T20:39:26.766Z,6.90
2018-12-19T20:41:55.258Z,6.90
2018-12-19T20:44:23.915Z,6.90
2018-12-19T20:46:52.507Z,6.90
2018-12-19T20:49:21.084Z,6.90
2018-12-19T20:51:50.144Z,6.90
2018-12-19T20:54:18.631Z,6.90
2018-12-19T20:56:47.131Z,6.90
2018-12-19T20:59:15.726Z,6.90
2018-12-19T21:01:44.265Z,6.90
2018-12-19T21:04:12.784Z,6.90
2018-12-19T21:06:41.386Z,6.80
2018-12-19T21:09:09.978Z,6.90
2018-12-19T21:11:38.561Z,6.80
2018-12-19T21:14:07.058Z,6.80
2018-12-19T21:16:40.878Z,6.90
2018-12-19T21:19:09.380Z,6.90
2018-12-19T21:21:37.831Z,6.80
2018-12-19T21:24:06.997Z,6.80
2018-12-19T21:26:35.479Z,6.90
2018-12-19T21:29:04.853Z,6.90
2018-12-19T21:31:33.494Z,6.90
2018-12-19T21:34:02.063Z,6.90
2018-12-19T21:36:30.511Z,6.90
2018-12-19T21:38:59.135Z,6.90
2018-12-19T21:41:27.644Z,6.90
2018-12-19T21:43:57.272Z,6.90
2018-12-19T21:46:25.916Z,6.90
2018-12-19T21:48:56.295Z,6.80
2018-12-19T21:51:24.913Z,6.90
2018-12-19T21:53:53.457Z,6.80
2018-12-19T21:56:21.942Z,6.80
2018-12-19T21:58:50.659Z,6.80
2018-12-19T22:01:19.254Z,6.80
2018-12-19T22:03:47.829Z,6.80
2018-12-19T22:06:17.150Z,6.80
2018-12-19T22:08:45.900Z,6.80
2018-12-19T22:11:14.687Z,6.80
2018-12-19T22:13:43.559Z,6.80
2018-12-19T22:16:16.331Z,6.80
2018-12-19T22:18:46.935Z,6.80
2018-12-19T22:21:16.417Z,6.80
2018-12-19T22:23:45.911Z,6.80
2018-12-19T22:26:14.554Z,6.80
2018-12-19T22:28:44.069Z,6.80
2018-12-19T22:31:12.787Z,6.80
2018-12-19T22:33:41.460Z,6.80
2018-12-19T22:36:10.014Z,6.80
2018-12-19T22:38:38.547Z,6.80
2018-12-19T22:41:07.042Z,6.70
2018-12-19T22:43:35.562Z,6.70
2018-12-19T22:46:04.102Z,6.70
2018-12-19T22:48:32.821Z,6.70
2018-12-19T22:51:01.414Z,6.60
2018-12-19T22:53:30.603Z,6.60
2018-12-19T22:55:59.123Z,6.60
2018-12-19T22:58:27.910Z,6.60
2018-12-19T23:01:01.780Z,6.60
2018-12-19T23:03:35.723Z,6.50
2018-12-19T23:06:04.496Z,6.50
2018-12-19T23:08:33.103Z,6.50
2018-12-19T23:11:01.715Z,6.40
2018-12-19T23:13:31.208Z,6.40
2018-12-19T23:15:59.910Z,6.40
2018-12-19T23:18:28.559Z,6.40
2018-12-19T23:20:57.163Z,6.30
2018-12-19T23:23:25.962Z,6.30
2018-12-19T23:25:54.479Z,6.30
2018-12-19T23:28:22.970Z,6.20
2018-12-19T23:30:51.510Z,6.20
2018-12-19T23:33:20.245Z,6.20
2018-12-19T23:35:48.813Z,6.20
2018-12-19T23:38:17.361Z,6.20
2018-12-19T23:40:45.941Z,6.10
2018-12-19T23:43:14.493Z,6.10
2018-12-19T23:45:43.051Z,6.10
2018-12-19T23:48:11.641Z,6.10
2018-12-19T23:50:40.132Z,6.10
2018-12-19T23:53:08.748Z,6.10
2018-12-19T23:55:37.480Z,6.10
2018-12-19T23:58:06.232Z,6.10
